Kezdőlap
METAR-TAF:

METAR-TAF

Repülőterek :

Marshfield Municipal Airport

Marshfield, Wisconsin, Amerikai Egyesült Államok

földrajzi szélesség: 44-38-17N, földrajzi hosszúság: 090-11-15W, magasság: 389 m

Jelenlegi meteorológiai megfigyelések

A jelentés 34 perccel ezelõtt készült, 17:54 UTC
Nyugat-délnyugati szél 9 kt
Hőmérséklet 9°C
Páratartalom 87%
Légköri nyomás 1016 hPa
Látótávolság: 16.1 km
Szórványos felhőzet 1500 lábon
Szakadozott felhőzet 2900 lábon
Borult 5000 lábon
enyhe esõ

METAR: KMFI 181754Z AUTO 24009KT 10SM -RA SCT015 BKN029 OVC050 09/07 A3000 RMK AO2 SLP165 P0000 60000 T00940067 10100 20056 58009

Idő: 13:28 (18:28 UTC)


TAF: hiányzik

Meteorológiai megfigyelések és előrejelzések több, mint 4000 repülőtéren (METAR és TAF jelentéseket).

A térképen piros és sárga pontok jelzik az elérhető meteorológiai állomásokat.

Mozgassa az egeret a pont fölött, hogy megjelenjen az állomás neve.

Azután kattintson az időjárási megfigyelések és előrejelzések megtekintéséhez.

A térkép megváltoztatása: kattintson a fekete keresztel jelölt zöld gombra ráközelítéshez, a vonallal jelölt zöld gombra távolításhoz, vagy a zöld nyilakra a szomszédos térképek eléréséhez.


METAR-TAF: